Terminal Aerodrome Forecast
Issued by NWS

Home | Current Version | Previous Version | Text Only | Print | Product List | Glossary On
Versions: 1 2 3 4 5 6 7 8 9 10 11 12 13 14 15 16 17 18
000
FTUS43 KGRB 280500
TAFATW
TAF
KATW 280520Z 2806/2906 10003KT P6SM OVC028
     FM280900 00000KT 5SM BR OVC020
     FM281700 17005KT 6SM BR SCT020 BKN070
     FM282100 15010KT P6SM SCT025 BKN060 WS018/19035KT
     FM290400 16011KT P6SM BKN020 OVC050 WS018/19030KT=

USA.gov is the U.S. government's official web portal to all federal, state and local government web resources and services.